Time;durP1;ratioP1;P1;durP2;ratioP2;P2;SDS_P1;SDS_P2;PMS_P1;PMS_P2;Temp;Humidity;BMP_temperature;BMP_pressure;BME280_temperature;BME280_humidity;BME280_pressure;Samples;Min_cycle;Max_cycle;Signal;HPM_P1;HPM_P2
2021/01/26 00:00:43;;;;;;;1999.90;999.90;;;;;;;;;;5102989;28;20051;-91
2021/01/26 00:03:08;;;;;;;327.33;295.20;;;;;;;;;;5095287;28;20024;-90
2021/01/26 00:05:34;;;;;;;329.38;297.10;;;;;;;;;;5086911;28;20127;-90
2021/01/26 00:07:59;;;;;;;343.23;309.60;;;;;;;;;;5086678;28;20028;-90
2021/01/26 00:10:26;;;;;;;342.58;309.77;;;;;;;;;;5087508;28;20064;-91
2021/01/26 00:12:51;;;;;;;338.08;305.30;;;;;;;;;;5081789;28;20027;-90
2021/01/26 00:15:20;;;;;;;347.25;314.58;;;;;;;;;;5094670;28;20028;-91
2021/01/26 00:17:45;;;;;;;377.63;342.95;;;;;;;;;;5097410;28;20440;-90
2021/01/26 00:20:13;;;;;;;362.80;329.45;;;;;;;;;;5083824;28;20045;-90
2021/01/26 00:22:39;;;;;;;360.75;326.85;;;;;;;;;;5102134;28;20522;-90
2021/01/26 00:25:05;;;;;;;335.50;304.17;;;;;;;;;;5102494;28;20484;-90
2021/01/26 00:27:30;;;;;;;362.08;328.73;;;;;;;;;;5097794;28;20028;-90
2021/01/26 00:29:56;;;;;;;360.10;326.80;;;;;;;;;;5088062;28;20030;-90
2021/01/26 00:32:21;;;;;;;344.45;312.60;;;;;;;;;;5087305;28;20053;-90
2021/01/26 00:34:46;;;;;;;355.90;322.77;;;;;;;;;;5084937;28;20181;-91
2021/01/26 00:37:12;;;;;;;356.83;324.30;;;;;;;;;;5098834;28;20020;-89
2021/01/26 00:39:37;;;;;;;348.15;315.80;;;;;;;;;;5109428;28;20096;-86
2021/01/26 00:42:03;;;;;;;347.60;315.63;;;;;;;;;;5108482;28;20058;-89
2021/01/26 00:44:29;;;;;;;347.02;314.63;;;;;;;;;;5112644;28;20071;-87
2021/01/26 00:46:54;;;;;;;341.77;309.67;;;;;;;;;;5100286;28;20400;-89
2021/01/26 00:49:19;;;;;;;356.48;323.08;;;;;;;;;;5108501;28;20020;-88
2021/01/26 00:51:45;;;;;;;365.02;331.23;;;;;;;;;;5110594;28;20020;-89
2021/01/26 00:54:11;;;;;;;355.42;322.58;;;;;;;;;;5108219;28;20028;-89
2021/01/26 00:56:38;;;;;;;358.58;325.25;;;;;;;;;;5106892;28;20017;-87
2021/01/26 00:59:04;;;;;;;358.95;325.67;;;;;;;;;;5110460;28;20061;-89
2021/01/26 01:01:30;;;;;;;357.38;324.13;;;;;;;;;;5108586;28;20216;-88
2021/01/26 01:03:56;;;;;;;348.70;315.83;;;;;;;;;;5108235;28;20028;-88
2021/01/26 01:06:24;;;;;;;345.65;313.17;;;;;;;;;;5104330;28;20004;-86
2021/01/26 01:08:49;;;;;;;339.95;308.35;;;;;;;;;;5104619;28;20016;-88
2021/01/26 01:11:15;;;;;;;338.25;306.92;;;;;;;;;;5105458;28;20028;-88
2021/01/26 01:13:40;;;;;;;348.83;316.60;;;;;;;;;;5097294;28;20017;-86
2021/01/26 01:16:06;;;;;;;361.92;329.08;;;;;;;;;;5110488;28;20067;-88
2021/01/26 01:18:32;;;;;;;349.92;317.98;;;;;;;;;;5098736;28;20046;-88
2021/01/26 01:20:57;;;;;;;342.25;310.15;;;;;;;;;;5102761;28;20039;-88
2021/01/26 01:23:23;;;;;;;334.50;303.48;;;;;;;;;;5092218;28;20031;-89
2021/01/26 01:25:48;;;;;;;343.00;311.23;;;;;;;;;;5091324;28;20062;-90
2021/01/26 01:28:15;;;;;;;344.35;312.25;;;;;;;;;;5089693;28;20088;-90
2021/01/26 01:30:40;;;;;;;339.13;307.58;;;;;;;;;;5081864;28;20059;-89
2021/01/26 01:33:06;;;;;;;347.23;314.25;;;;;;;;;;5091927;28;20047;-89
2021/01/26 01:35:32;;;;;;;344.00;311.92;;;;;;;;;;5086301;28;20031;-88
2021/01/26 01:37:57;;;;;;;349.33;316.40;;;;;;;;;;5087266;28;20038;-90
2021/01/26 01:40:33;;;;;;;355.58;321.50;;;;;;;;;;5082989;28;20020;-89
2021/01/26 01:42:58;;;;;;;349.17;315.70;;;;;;;;;;5077305;28;20408;-90
2021/01/26 01:45:24;;;;;;;351.08;317.63;;;;;;;;;;5085680;28;20063;-89
2021/01/26 01:47:53;;;;;;;355.02;320.90;;;;;;;;;;5088975;28;20686;-88
2021/01/26 01:50:27;;;;;;;354.55;320.35;;;;;;;;;;5091947;28;20031;-89
2021/01/26 01:52:55;;;;;;;359.88;326.35;;;;;;;;;;5084692;28;20337;-89
2021/01/26 01:55:22;;;;;;;356.63;322.95;;;;;;;;;;5083370;28;20043;-90
2021/01/26 01:57:51;;;;;;;767.15;491.52;;;;;;;;;;5088561;28;20103;-88
2021/01/26 02:00:18;;;;;;;763.50;488.08;;;;;;;;;;5081604;28;20219;-89
2021/01/26 02:02:54;;;;;;;1999.90;999.90;;;;;;;;;;5086315;28;20108;-89
2021/01/26 02:05:20;;;;;;;358.80;324.08;;;;;;;;;;5082711;28;20416;-89
2021/01/26 02:07:46;;;;;;;1999.90;999.90;;;;;;;;;;5086077;28;20017;-90
2021/01/26 02:10:12;;;;;;;1999.90;999.90;;;;;;;;;;5079180;28;20034;-89
2021/01/26 02:12:37;;;;;;;1999.90;999.90;;;;;;;;;;5081914;28;20069;-88
2021/01/26 02:15:04;;;;;;;1999.90;999.90;;;;;;;;;;5085365;28;20032;-89
2021/01/26 02:17:32;;;;;;;1999.90;999.90;;;;;;;;;;5093012;28;20387;-89
2021/01/26 02:20:16;;;;;;;1999.90;999.90;;;;;;;;;;5083782;28;20058;-89
2021/01/26 02:22:42;;;;;;;1999.90;999.90;;;;;;;;;;5077813;28;20123;-89
2021/01/26 02:25:27;;;;;;;1999.90;999.90;;;;;;;;;;5091885;28;20054;-88
2021/01/26 02:27:58;;;;;;;1999.90;999.90;;;;;;;;;;5090045;28;20120;-89
2021/01/26 02:30:41;;;;;;;1999.90;999.90;;;;;;;;;;5075920;28;20093;-89
2021/01/26 02:33:27;;;;;;;1999.90;999.90;;;;;;;;;;5078940;28;20403;-89
2021/01/26 02:36:05;;;;;;;1999.90;999.90;;;;;;;;;;5081553;28;20120;-88
2021/01/26 02:38:30;;;;;;;1999.90;999.90;;;;;;;;;;5084863;28;20040;-89
2021/01/26 02:40:55;;;;;;;1999.90;999.90;;;;;;;;;;5082560;28;20024;-90
2021/01/26 02:43:40;;;;;;;1999.90;999.90;;;;;;;;;;5087855;28;20036;-90
2021/01/26 02:46:09;;;;;;;1999.90;999.90;;;;;;;;;;5089226;28;20138;-89
2021/01/26 02:48:49;;;;;;;1999.90;999.90;;;;;;;;;;5089806;28;20466;-89
2021/01/26 02:51:29;;;;;;;1999.90;999.90;;;;;;;;;;5088893;28;20039;-89
2021/01/26 02:54:03;;;;;;;1999.90;999.90;;;;;;;;;;5082141;28;20031;-90
2021/01/26 02:56:36;;;;;;;1999.90;999.90;;;;;;;;;;5080201;28;20039;-89
2021/01/26 02:59:06;;;;;;;1999.90;999.90;;;;;;;;;;5089414;28;20027;-88
2021/01/26 03:01:38;;;;;;;1999.90;999.90;;;;;;;;;;5081681;28;20090;-89
2021/01/26 03:04:06;;;;;;;1999.90;999.90;;;;;;;;;;5091549;28;20384;-89
2021/01/26 03:06:33;;;;;;;1999.90;999.90;;;;;;;;;;5088240;28;20035;-88
2021/01/26 03:09:01;;;;;;;1999.90;999.90;;;;;;;;;;5082335;28;20088;-88
2021/01/26 03:11:30;;;;;;;1999.90;999.90;;;;;;;;;;5093518;28;20043;-87
2021/01/26 03:14:01;;;;;;;1999.90;999.90;;;;;;;;;;5084301;28;20035;-89
2021/01/26 03:16:29;;;;;;;1999.90;999.90;;;;;;;;;;5069940;28;20051;-89
2021/01/26 03:18:59;;;;;;;1999.90;999.90;;;;;;;;;;5092395;28;20016;-87
2021/01/26 03:21:25;;;;;;;1999.90;999.90;;;;;;;;;;5109713;28;20066;-86
2021/01/26 03:24:01;;;;;;;1999.90;999.90;;;;;;;;;;5104584;28;20044;-88
2021/01/26 03:26:27;;;;;;;1999.90;999.90;;;;;;;;;;5110013;28;20024;-88
2021/01/26 03:28:55;;;;;;;1999.90;999.90;;;;;;;;;;5107100;28;20016;-89
2021/01/26 03:31:24;;;;;;;1999.90;999.90;;;;;;;;;;5111209;28;20032;-89
2021/01/26 03:33:52;;;;;;;1999.90;999.90;;;;;;;;;;5105139;28;20013;-88
2021/01/26 03:36:17;;;;;;;1999.90;999.90;;;;;;;;;;5109402;28;20012;-89
2021/01/26 03:38:44;;;;;;;1999.90;999.90;;;;;;;;;;5115170;28;20465;-89
2021/01/26 03:41:10;;;;;;;1999.90;999.90;;;;;;;;;;5113921;28;20085;-89
2021/01/26 03:43:35;;;;;;;1999.90;999.90;;;;;;;;;;5094152;28;20025;-89
2021/01/26 03:46:20;;;;;;;1999.90;999.90;;;;;;;;;;5100899;28;20037;-88
2021/01/26 03:48:51;;;;;;;1999.90;999.90;;;;;;;;;;5090000;28;20438;-89
2021/01/26 03:51:35;;;;;;;1999.90;999.90;;;;;;;;;;5099366;28;20048;-88
2021/01/26 03:54:01;;;;;;;1999.90;999.90;;;;;;;;;;5078833;28;20021;-88
2021/01/26 03:56:38;;;;;;;1999.90;999.90;;;;;;;;;;5094157;28;20379;-88
2021/01/26 03:59:04;;;;;;;1999.90;999.90;;;;;;;;;;5095154;28;20028;-90
2021/01/26 04:01:36;;;;;;;1999.90;999.90;;;;;;;;;;5084201;28;20380;-88
2021/01/26 04:04:04;;;;;;;1999.90;999.90;;;;;;;;;;5084288;28;20036;-88
2021/01/26 04:06:44;;;;;;;1999.90;999.90;;;;;;;;;;5087258;28;20021;-88
2021/01/26 04:09:11;;;;;;;1999.90;999.90;;;;;;;;;;5076516;28;20032;-88
2021/01/26 04:11:55;;;;;;;1999.90;999.90;;;;;;;;;;5078781;28;20468;-88
2021/01/26 04:14:29;;;;;;;1999.90;999.90;;;;;;;;;;5087563;28;20036;-88
2021/01/26 04:17:09;;;;;;;1999.90;999.90;;;;;;;;;;5083456;28;20103;-88
2021/01/26 04:19:38;;;;;;;1999.90;999.90;;;;;;;;;;5080101;28;20383;-87
2021/01/26 04:22:05;;;;;;;1999.90;999.90;;;;;;;;;;5084237;28;20055;-87
2021/01/26 04:24:32;;;;;;;1999.90;999.90;;;;;;;;;;5088338;28;20020;-88
2021/01/26 04:26:59;;;;;;;319.20;288.25;;;;;;;;;;5080399;28;20020;-89
2021/01/26 04:29:24;;;;;;;317.13;286.42;;;;;;;;;;5083065;28;20024;-88
2021/01/26 04:31:51;;;;;;;321.33;290.23;;;;;;;;;;5087807;28;20431;-89
2021/01/26 04:34:16;;;;;;;330.05;298.30;;;;;;;;;;5084858;28;20032;-89
2021/01/26 04:36:41;;;;;;;331.27;299.83;;;;;;;;;;5086166;28;20475;-88
2021/01/26 04:39:07;;;;;;;332.05;300.92;;;;;;;;;;5102230;28;20012;-86
2021/01/26 04:41:36;;;;;;;345.02;313.17;;;;;;;;;;5111363;28;20040;-87
2021/01/26 04:44:21;;;;;;;344.33;311.85;;;;;;;;;;5114566;28;20065;-86
2021/01/26 04:46:46;;;;;;;341.17;308.48;;;;;;;;;;5102464;28;20138;-86
2021/01/26 04:49:19;;;;;;;337.98;306.65;;;;;;;;;;5103152;28;20068;-85
2021/01/26 04:52:04;;;;;;;348.10;315.55;;;;;;;;;;5091586;28;20059;-86
2021/01/26 04:54:29;;;;;;;367.30;333.60;;;;;;;;;;5084188;28;20036;-87
2021/01/26 04:57:00;;;;;;;371.95;336.40;;;;;;;;;;5096593;28;20019;-88
2021/01/26 04:59:47;;;;;;;377.25;341.75;;;;;;;;;;5100344;28;20024;-88
2021/01/26 05:02:26;;;;;;;371.95;336.75;;;;;;;;;;5099695;28;20040;-88
2021/01/26 05:04:55;;;;;;;346.42;313.63;;;;;;;;;;5098007;28;20032;-88
2021/01/26 05:07:25;;;;;;;349.92;317.10;;;;;;;;;;5094313;28;20024;-87
2021/01/26 05:09:56;;;;;;;347.77;314.00;;;;;;;;;;5079081;28;20486;-88
2021/01/26 05:12:23;;;;;;;349.25;315.50;;;;;;;;;;5080453;28;20384;-88
2021/01/26 05:14:52;;;;;;;340.55;307.80;;;;;;;;;;5082151;28;20028;-88
2021/01/26 05:17:22;;;;;;;339.13;306.85;;;;;;;;;;5084644;28;20025;-88
2021/01/26 05:20:17;;;;;;;341.45;308.15;;;;;;;;;;5079834;28;20095;-88
2021/01/26 05:23:09;;;;;;;345.25;311.50;;;;;;;;;;5084501;28;20063;-88
2021/01/26 05:25:34;;;;;;;337.52;304.45;;;;;;;;;;5082788;28;20044;-89
2021/01/26 05:27:59;;;;;;;335.88;303.98;;;;;;;;;;5082009;28;20031;-86
2021/01/26 05:30:31;;;;;;;336.27;305.08;;;;;;;;;;5082102;28;20037;-88
2021/01/26 05:32:58;;;;;;;341.98;310.00;;;;;;;;;;5082323;28;20549;-87
2021/01/26 05:35:24;;;;;;;341.35;308.95;;;;;;;;;;5081662;28;20024;-88
2021/01/26 05:37:51;;;;;;;328.90;297.80;;;;;;;;;;5096597;28;20031;-89
2021/01/26 05:40:34;;;;;;;316.38;286.35;;;;;;;;;;5087102;28;20069;-88
2021/01/26 05:43:01;;;;;;;320.65;290.70;;;;;;;;;;5080336;28;20127;-89
2021/01/26 05:45:31;;;;;;;318.40;289.08;;;;;;;;;;5087708;28;20085;-89
2021/01/26 05:48:05;;;;;;;319.85;290.15;;;;;;;;;;5085994;28;20047;-88
2021/01/26 05:50:31;;;;;;;314.98;285.25;;;;;;;;;;5076379;28;20032;-89
2021/01/26 05:53:04;;;;;;;308.63;279.85;;;;;;;;;;5089966;28;20115;-89
2021/01/26 05:55:30;;;;;;;325.02;295.35;;;;;;;;;;5080853;28;20039;-89
2021/01/26 05:58:04;;;;;;;317.45;288.00;;;;;;;;;;5085159;28;20024;-87
2021/01/26 06:00:30;;;;;;;318.02;288.27;;;;;;;;;;5084716;28;20021;-91
2021/01/26 06:03:04;;;;;;;344.35;312.75;;;;;;;;;;5075527;28;20544;-85
2021/01/26 06:05:30;;;;;;;359.58;326.20;;;;;;;;;;5087369;28;20029;-77
2021/01/26 06:08:14;;;;;;;341.60;308.10;;;;;;;;;;5079075;28;20126;-77
2021/01/26 06:10:41;;;;;;;313.60;283.73;;;;;;;;;;5077269;28;20043;-78
2021/01/26 06:13:06;;;;;;;298.52;270.42;;;;;;;;;;5074219;28;20058;-77
2021/01/26 06:15:34;;;;;;;290.38;264.23;;;;;;;;;;5077900;28;20562;-77
2021/01/26 06:18:08;;;;;;;292.95;266.35;;;;;;;;;;5080572;28;20020;-84
2021/01/26 06:20:35;;;;;;;293.70;267.67;;;;;;;;;;5076341;28;20053;-87
2021/01/26 06:23:11;;;;;;;316.27;288.08;;;;;;;;;;5081300;28;20108;-85
2021/01/26 06:25:36;;;;;;;;;;;;;;;;;;5081091;28;20075;-83
2021/01/26 06:28:20;;;;;;;302.47;275.70;;;;;;;;;;5076938;28;20016;-83
2021/01/26 06:30:51;;;;;;;313.83;285.35;;;;;;;;;;5076641;28;20024;-85
2021/01/26 06:33:26;;;;;;;314.17;286.60;;;;;;;;;;5086668;28;20074;-87
2021/01/26 06:36:01;;;;;;;298.17;271.55;;;;;;;;;;5089657;28;20048;-84
2021/01/26 06:38:37;;;;;;;282.70;257.17;;;;;;;;;;5079257;28;20070;-85
2021/01/26 06:41:08;;;;;;;300.42;273.33;;;;;;;;;;5074955;28;20089;-85
2021/01/26 06:43:43;;;;;;;291.85;264.98;;;;;;;;;;5080102;28;20572;-86
2021/01/26 06:46:11;;;;;;;292.48;265.60;;;;;;;;;;5075650;28;20020;-84
2021/01/26 06:48:37;;;;;;;296.92;269.00;;;;;;;;;;5079345;28;20029;-78
2021/01/26 06:51:21;;;;;;;296.33;268.42;;;;;;;;;;5078349;28;20508;-86
2021/01/26 06:53:49;;;;;;;298.98;271.25;;;;;;;;;;5082955;28;20396;-79
2021/01/26 06:56:34;;;;;;;298.75;270.85;;;;;;;;;;5086593;28;20092;-84
2021/01/26 06:59:14;;;;;;;291.15;263.63;;;;;;;;;;5086171;28;20035;-85
2021/01/26 07:02:06;;;;;;;293.75;265.73;;;;;;;;;;5078274;28;20488;-85
2021/01/26 07:04:44;;;;;;;299.35;270.85;;;;;;;;;;5086173;28;20040;-80
2021/01/26 07:07:16;;;;;;;301.77;273.35;;;;;;;;;;5082778;28;20104;-87
2021/01/26 07:10:05;;;;;;;307.70;277.65;;;;;;;;;;5078933;28;20043;-84
2021/01/26 07:12:46;;;;;;;306.83;277.65;;;;;;;;;;5077566;28;20037;-84
2021/01/26 07:15:24;;;;;;;308.33;277.75;;;;;;;;;;5086931;28;20027;-85
2021/01/26 07:18:08;;;;;;;309.48;280.02;;;;;;;;;;5080331;28;20605;-85
2021/01/26 07:20:57;;;;;;;311.33;281.63;;;;;;;;;;5079789;28;20137;-85
2021/01/26 07:23:26;;;;;;;312.30;283.23;;;;;;;;;;5080148;28;20044;-77
2021/01/26 07:25:51;;;;;;;316.10;284.58;;;;;;;;;;5083233;28;20165;-83
2021/01/26 07:28:28;;;;;;;326.85;295.77;;;;;;;;;;5085664;28;20103;-84
2021/01/26 07:31:15;;;;;;;321.05;290.33;;;;;;;;;;5082450;28;20178;-83
2021/01/26 07:33:47;;;;;;;314.25;283.45;;;;;;;;;;5073219;28;20567;-83
2021/01/26 07:36:21;;;;;;;319.17;287.55;;;;;;;;;;5079110;28;20028;-83
2021/01/26 07:38:50;;;;;;;300.17;270.48;;;;;;;;;;5085609;28;20033;-83
2021/01/26 07:41:30;;;;;;;299.50;269.60;;;;;;;;;;5079777;28;20016;-82
2021/01/26 07:44:09;;;;;;;307.13;276.13;;;;;;;;;;5079532;28;20082;-83
2021/01/26 07:46:41;;;;;;;323.27;291.73;;;;;;;;;;5084413;28;20040;-81
2021/01/26 07:49:15;;;;;;;327.55;293.98;;;;;;;;;;5084355;28;20036;-83
2021/01/26 07:51:42;;;;;;;308.05;276.85;;;;;;;;;;5074913;28;20028;-80
2021/01/26 07:54:25;;;;;;;309.73;278.88;;;;;;;;;;5076385;28;20487;-82
2021/01/26 07:56:51;;;;;;;304.55;274.27;;;;;;;;;;5082407;28;20070;-81
2021/01/26 07:59:24;;;;;;;302.42;272.40;;;;;;;;;;5078480;28;20040;-81
2021/01/26 08:01:56;;;;;;;296.38;267.77;;;;;;;;;;5077095;28;20028;-82
2021/01/26 08:04:23;;;;;;;316.08;285.17;;;;;;;;;;5077415;28;20032;-82
2021/01/26 08:06:51;;;;;;;1999.90;999.90;;;;;;;;;;5077419;28;20024;-82
2021/01/26 08:09:21;;;;;;;309.25;278.38;;;;;;;;;;5079880;28;20032;-81
2021/01/26 08:11:58;;;;;;;302.50;272.92;;;;;;;;;;5080998;28;20029;-82
2021/01/26 08:14:27;;;;;;;301.20;271.60;;;;;;;;;;5077521;28;20364;-81
2021/01/26 08:16:53;;;;;;;721.38;449.42;;;;;;;;;;5078164;28;20028;-82
2021/01/26 08:19:23;;;;;;;724.92;453.02;;;;;;;;;;5072275;28;20040;-82
2021/01/26 08:21:49;;;;;;;1999.90;999.90;;;;;;;;;;5082627;28;20048;-81
2021/01/26 08:24:14;;;;;;;1999.90;999.90;;;;;;;;;;5079610;28;20153;-82
2021/01/26 08:26:40;;;;;;;329.17;283.95;;;;;;;;;;5080154;28;20024;-82
2021/01/26 08:29:06;;;;;;;317.40;284.13;;;;;;;;;;5082093;28;20024;-82
2021/01/26 08:31:31;;;;;;;1999.90;999.90;;;;;;;;;;5077175;28;20028;-82
2021/01/26 08:34:17;;;;;;;1999.90;999.90;;;;;;;;;;5082029;28;20020;-81
2021/01/26 08:36:42;;;;;;;1999.90;999.90;;;;;;;;;;5079633;28;20028;-81
2021/01/26 08:39:11;;;;;;;1999.90;999.90;;;;;;;;;;5080008;28;20021;-83
2021/01/26 08:41:41;;;;;;;1999.90;999.90;;;;;;;;;;5075108;28;20075;-82
2021/01/26 08:44:10;;;;;;;729.17;455.95;;;;;;;;;;5084659;28;20039;-82
2021/01/26 08:46:38;;;;;;;1999.90;999.90;;;;;;;;;;5088687;28;20471;-83
2021/01/26 08:49:15;;;;;;;1999.90;999.90;;;;;;;;;;5080524;28;20063;-84
2021/01/26 08:51:41;;;;;;;1999.90;999.90;;;;;;;;;;5083559;28;20477;-83
2021/01/26 08:54:06;;;;;;;1999.90;999.90;;;;;;;;;;5080607;28;20020;-82
2021/01/26 08:56:33;;;;;;;1999.90;999.90;;;;;;;;;;5078318;28;20504;-82
2021/01/26 08:59:00;;;;;;;1999.90;999.90;;;;;;;;;;5086225;28;20140;-83
2021/01/26 09:01:29;;;;;;;1999.90;999.90;;;;;;;;;;5080767;28;20085;-82
2021/01/26 09:04:20;;;;;;;1999.90;999.90;;;;;;;;;;5088771;28;20028;-83
2021/01/26 09:06:46;;;;;;;1999.90;999.90;;;;;;;;;;5098699;28;20123;-83
2021/01/26 09:09:18;;;;;;;1999.90;999.90;;;;;;;;;;5099544;28;20016;-83
2021/01/26 09:11:43;;;;;;;1999.90;999.90;;;;;;;;;;5100009;28;20021;-82
2021/01/26 09:14:14;;;;;;;1999.90;999.90;;;;;;;;;;5096382;28;20027;-80
2021/01/26 09:16:41;;;;;;;729.88;456.38;;;;;;;;;;5103301;28;20044;-82
2021/01/26 09:19:12;;;;;;;735.17;461.58;;;;;;;;;;5102525;28;20046;-83
2021/01/26 09:21:38;;;;;;;316.05;285.17;;;;;;;;;;5103778;28;20044;-83
2021/01/26 09:24:03;;;;;;;317.05;284.55;;;;;;;;;;5100629;28;20211;-82
2021/01/26 09:26:30;;;;;;;734.53;460.90;;;;;;;;;;5085274;28;20138;-83
2021/01/26 09:28:55;;;;;;;733.58;459.73;;;;;;;;;;5095908;28;20062;-82
2021/01/26 09:31:29;;;;;;;1999.90;999.90;;;;;;;;;;5097923;28;20016;-82
2021/01/26 09:34:02;;;;;;;721.50;449.08;;;;;;;;;;5100574;28;20028;-84
2021/01/26 09:36:28;;;;;;;727.40;453.88;;;;;;;;;;5099302;28;20091;-83
2021/01/26 09:38:59;;;;;;;1999.90;999.90;;;;;;;;;;5099936;28;20020;-84
2021/01/26 09:41:26;;;;;;;1999.90;999.90;;;;;;;;;;5098102;28;20048;-82
2021/01/26 09:43:56;;;;;;;744.67;463.48;;;;;;;;;;5083173;28;20077;-82
2021/01/26 09:46:26;;;;;;;312.45;281.17;;;;;;;;;;5076199;28;20028;-84
2021/01/26 09:48:57;;;;;;;307.45;276.50;;;;;;;;;;5076797;28;20107;-83
2021/01/26 09:51:24;;;;;;;311.33;279.88;;;;;;;;;;5077955;28;20024;-83
2021/01/26 09:54:05;;;;;;;320.23;287.55;;;;;;;;;;5077561;28;20652;-81
2021/01/26 09:56:31;;;;;;;340.85;307.35;;;;;;;;;;5075021;28;20059;-82
2021/01/26 09:58:57;;;;;;;337.50;304.30;;;;;;;;;;5080927;28;20477;-84
2021/01/26 10:01:23;;;;;;;338.40;305.10;;;;;;;;;;5076302;28;20064;-82
2021/01/26 10:03:54;;;;;;;317.13;286.48;;;;;;;;;;5073528;28;20036;-83
2021/01/26 10:06:20;;;;;;;321.15;290.95;;;;;;;;;;5078374;28;20078;-76
2021/01/26 10:08:45;;;;;;;323.60;292.50;;;;;;;;;;5083090;28;20031;-80
2021/01/26 10:11:12;;;;;;;338.77;306.95;;;;;;;;;;5080411;28;20028;-82
2021/01/26 10:13:38;;;;;;;347.30;314.33;;;;;;;;;;5080603;28;20077;-86
2021/01/26 10:16:22;;;;;;;333.02;299.45;;;;;;;;;;5075324;28;20036;-84
2021/01/26 10:18:49;;;;;;;332.13;299.92;;;;;;;;;;5075895;28;20396;-84
2021/01/26 10:21:24;;;;;;;326.83;294.67;;;;;;;;;;5077034;28;20083;-84
2021/01/26 10:23:57;;;;;;;325.83;294.60;;;;;;;;;;5082430;28;20408;-84
2021/01/26 10:26:24;;;;;;;324.90;295.00;;;;;;;;;;5076640;28;20470;-84
2021/01/26 10:28:58;;;;;;;311.30;282.80;;;;;;;;;;5082533;28;20042;-84
2021/01/26 10:31:23;;;;;;;337.88;309.08;;;;;;;;;;5079056;28;20042;-84
2021/01/26 10:33:49;;;;;;;338.75;309.83;;;;;;;;;;5080828;28;20013;-85
2021/01/26 10:36:18;;;;;;;311.02;283.95;;;;;;;;;;5080082;28;20024;-83
2021/01/26 10:38:44;;;;;;;311.77;284.52;;;;;;;;;;5075735;28;20146;-84
2021/01/26 10:41:12;;;;;;;300.60;275.20;;;;;;;;;;5078215;28;20032;-84
2021/01/26 10:43:39;;;;;;;305.55;279.42;;;;;;;;;;5083034;28;20107;-82
2021/01/26 10:46:09;;;;;;;302.67;276.95;;;;;;;;;;5076657;28;20043;-84
2021/01/26 10:48:35;;;;;;;301.08;276.00;;;;;;;;;;5081329;28;20036;-83
2021/01/26 10:51:09;;;;;;;294.35;269.40;;;;;;;;;;5081229;28;20016;-82
2021/01/26 10:53:35;;;;;;;303.77;279.23;;;;;;;;;;5081477;28;20117;-83
2021/01/26 10:56:01;;;;;;;288.27;264.83;;;;;;;;;;5079373;28;20055;-83
2021/01/26 10:58:27;;;;;;;298.92;275.10;;;;;;;;;;5077879;28;20125;-84
2021/01/26 11:00:52;;;;;;;283.05;260.13;;;;;;;;;;5074648;28;20027;-83
2021/01/26 11:03:18;;;;;;;267.25;245.05;;;;;;;;;;5078179;28;20036;-83
2021/01/26 11:05:43;;;;;;;252.93;231.80;;;;;;;;;;5078604;28;20012;-82
2021/01/26 11:08:09;;;;;;;264.38;242.45;;;;;;;;;;5080403;28;20075;-81
2021/01/26 11:10:35;;;;;;;265.40;243.82;;;;;;;;;;5075721;28;20012;-86
2021/01/26 11:13:00;;;;;;;261.98;239.63;;;;;;;;;;5076520;28;20047;-76
2021/01/26 11:15:27;;;;;;;280.20;257.50;;;;;;;;;;5079537;28;20016;-83
2021/01/26 11:17:52;;;;;;;297.73;274.77;;;;;;;;;;5084044;28;20024;-85
2021/01/26 11:20:19;;;;;;;281.00;259.13;;;;;;;;;;5086588;28;20055;-85
2021/01/26 11:22:45;;;;;;;285.15;263.80;;;;;;;;;;5089074;28;20052;-84
2021/01/26 11:25:10;;;;;;;271.85;251.98;;;;;;;;;;5086376;28;20437;-84
2021/01/26 11:27:36;;;;;;;248.10;230.25;;;;;;;;;;5074933;28;20043;-84
2021/01/26 11:30:05;;;;;;;257.27;239.23;;;;;;;;;;5072044;28;20020;-84
2021/01/26 11:32:31;;;;;;;267.17;248.18;;;;;;;;;;5082831;28;20024;-84
2021/01/26 11:34:56;;;;;;;252.65;234.55;;;;;;;;;;5086616;28;20028;-85
2021/01/26 11:37:22;;;;;;;253.48;235.10;;;;;;;;;;5079286;28;20069;-84
2021/01/26 11:39:47;;;;;;;266.23;246.75;;;;;;;;;;5102324;28;20012;-83
2021/01/26 11:42:13;;;;;;;252.10;232.90;;;;;;;;;;5102289;28;20124;-82
2021/01/26 11:44:38;;;;;;;248.45;229.93;;;;;;;;;;5110883;28;20024;-83
2021/01/26 11:47:05;;;;;;;255.35;236.20;;;;;;;;;;5113930;28;20028;-83
2021/01/26 11:49:30;;;;;;;259.83;239.77;;;;;;;;;;5112728;28;20024;-84
2021/01/26 11:51:55;;;;;;;258.10;238.05;;;;;;;;;;5079910;28;20037;-84
2021/01/26 11:54:21;;;;;;;242.50;224.75;;;;;;;;;;5095999;28;20027;-85
2021/01/26 11:56:46;;;;;;;235.20;218.25;;;;;;;;;;5090587;28;20036;-84
2021/01/26 11:59:12;;;;;;;226.88;210.32;;;;;;;;;;5094097;28;20104;-84
2021/01/26 12:01:37;;;;;;;187.23;173.48;;;;;;;;;;5084947;28;20056;-82
2021/01/26 12:04:03;;;;;;;215.25;200.07;;;;;;;;;;5090631;28;20024;-84
2021/01/26 12:06:29;;;;;;;219.45;203.55;;;;;;;;;;5080500;28;20048;-82
2021/01/26 12:08:54;;;;;;;227.95;210.77;;;;;;;;;;5080235;28;20558;-83
2021/01/26 12:11:19;;;;;;;216.80;200.57;;;;;;;;;;5075216;28;20514;-83
2021/01/26 12:13:45;;;;;;;223.30;206.30;;;;;;;;;;5080532;28;20472;-83
2021/01/26 12:16:10;;;;;;;227.75;210.50;;;;;;;;;;5076712;28;20063;-83
2021/01/26 12:18:36;;;;;;;221.95;205.38;;;;;;;;;;5081651;28;20467;-82
2021/01/26 12:21:02;;;;;;;210.15;194.55;;;;;;;;;;5077312;28;20044;-82
2021/01/26 12:23:27;;;;;;;214.52;198.38;;;;;;;;;;5097466;28;20080;-81
2021/01/26 12:25:57;;;;;;;191.82;177.88;;;;;;;;;;5099833;28;20464;-81
2021/01/26 12:28:23;;;;;;;200.38;185.13;;;;;;;;;;5089057;28;20017;-83
2021/01/26 12:30:49;;;;;;;242.65;224.82;;;;;;;;;;5098246;28;20088;-81
2021/01/26 12:33:14;;;;;;;205.43;190.48;;;;;;;;;;5089489;28;20032;-82
2021/01/26 12:35:39;;;;;;;191.27;176.95;;;;;;;;;;5085129;28;20112;-81
2021/01/26 12:38:05;;;;;;;189.30;175.57;;;;;;;;;;5081836;28;20024;-82
2021/01/26 12:40:31;;;;;;;186.65;172.55;;;;;;;;;;5080046;28;20028;-82
2021/01/26 12:42:57;;;;;;;178.60;165.65;;;;;;;;;;5078359;28;20388;-82
2021/01/26 12:45:25;;;;;;;181.13;168.15;;;;;;;;;;5074122;28;20020;-83
2021/01/26 12:47:50;;;;;;;171.60;159.20;;;;;;;;;;5080509;28;20035;-82
2021/01/26 12:50:17;;;;;;;183.95;170.60;;;;;;;;;;5080584;28;20051;-82
2021/01/26 12:52:43;;;;;;;163.27;152.20;;;;;;;;;;5079675;28;20499;-83
2021/01/26 12:55:08;;;;;;;165.98;154.43;;;;;;;;;;5082714;28;20029;-82
2021/01/26 12:57:34;;;;;;;181.65;169.10;;;;;;;;;;5079428;28;20582;-83
2021/01/26 12:59:59;;;;;;;162.82;152.05;;;;;;;;;;5082545;28;20078;-83
2021/01/26 13:02:26;;;;;;;294.83;272.40;;;;;;;;;;5076364;28;20028;-83
2021/01/26 13:04:52;;;;;;;158.48;147.65;;;;;;;;;;5075501;28;20053;-83
2021/01/26 13:07:19;;;;;;;177.68;164.93;;;;;;;;;;5074924;28;20023;-83
2021/01/26 13:09:45;;;;;;;156.85;145.90;;;;;;;;;;5080213;28;20515;-86
2021/01/26 13:12:12;;;;;;;164.60;152.50;;;;;;;;;;5071288;28;20059;-83
2021/01/26 13:14:40;;;;;;;156.45;145.48;;;;;;;;;;5075652;28;20079;-83
2021/01/26 13:17:06;;;;;;;152.60;142.13;;;;;;;;;;5077608;28;20021;-84
2021/01/26 13:19:31;;;;;;;155.10;143.40;;;;;;;;;;5076559;28;20020;-83
2021/01/26 13:21:56;;;;;;;144.95;134.90;;;;;;;;;;5086404;28;20559;-83
2021/01/26 13:24:22;;;;;;;146.63;136.50;;;;;;;;;;5075927;28;20043;-82
2021/01/26 13:26:48;;;;;;;137.35;127.97;;;;;;;;;;5075485;28;20351;-84
2021/01/26 13:29:13;;;;;;;152.63;141.93;;;;;;;;;;5080372;28;20035;-85
2021/01/26 13:31:39;;;;;;;137.70;128.27;;;;;;;;;;5087609;28;20027;-83
2021/01/26 13:34:05;;;;;;;125.05;116.75;;;;;;;;;;5080207;28;20028;-83
2021/01/26 13:36:30;;;;;;;131.32;122.38;;;;;;;;;;5045818;28;20032;-84
2021/01/26 13:38:57;;;;;;;142.98;133.35;;;;;;;;;;5078534;28;20027;-83
2021/01/26 13:41:22;;;;;;;135.85;126.65;;;;;;;;;;5074825;28;20580;-84
2021/01/26 13:43:48;;;;;;;148.75;138.35;;;;;;;;;;5082809;28;20028;-82
2021/01/26 13:46:13;;;;;;;151.80;141.52;;;;;;;;;;5075281;28;20016;-82
2021/01/26 13:48:39;;;;;;;156.13;145.02;;;;;;;;;;5077058;28;20040;-83
2021/01/26 13:51:05;;;;;;;157.13;146.38;;;;;;;;;;5075169;28;20029;-83
2021/01/26 13:53:31;;;;;;;156.00;145.10;;;;;;;;;;5082517;28;20040;-82
2021/01/26 13:55:56;;;;;;;159.23;147.40;;;;;;;;;;5072189;28;20027;-82
2021/01/26 13:58:22;;;;;;;156.55;145.68;;;;;;;;;;5082171;28;20039;-82
2021/01/26 14:00:47;;;;;;;158.60;147.60;;;;;;;;;;5071523;28;20055;-83